createdAt,value
2023-05-08T00:01:20.282Z,97876.84
2023-05-08T00:03:46.971Z,97878.78
2023-05-08T00:06:13.550Z,97874.22
2023-05-08T00:08:40.383Z,97876.25
2023-05-08T00:11:06.879Z,97878.13
2023-05-08T00:13:33.433Z,97871.84
2023-05-08T00:15:59.977Z,97869.50
2023-05-08T00:18:26.621Z,97873.16
2023-05-08T00:20:53.257Z,97886.91
2023-05-08T00:23:22.015Z,97871.72
2023-05-08T00:25:48.492Z,97876.78
2023-05-08T00:28:14.979Z,97885.28
2023-05-08T00:30:42.504Z,97872.16
2023-05-08T00:33:09.487Z,97874.38
2023-05-08T00:35:36.041Z,97882.75
2023-05-08T00:38:03.213Z,97883.69
2023-05-08T00:40:29.960Z,97876.88
2023-05-08T00:42:56.389Z,97885.94
2023-05-08T00:45:22.939Z,97899.31
2023-05-08T00:47:49.905Z,97894.22
2023-05-08T00:50:16.951Z,97903.41
2023-05-08T00:52:43.489Z,97899.63
2023-05-08T00:55:09.979Z,97905.06
2023-05-08T00:57:36.826Z,97909.13
2023-05-08T01:00:10.290Z,97908.28
2023-05-08T01:02:37.174Z,97907.09
2023-05-08T01:05:03.880Z,97908.94
2023-05-08T01:07:30.384Z,97908.13
2023-05-08T01:09:56.912Z,97916.75
2023-05-08T01:12:43.770Z,97911.16
2023-05-08T01:15:19.524Z,97922.31
2023-05-08T01:17:46.050Z,97921.63
2023-05-08T01:20:18.075Z,97918.94
2023-05-08T01:23:00.827Z,97926.72
2023-05-08T01:25:36.468Z,97921.97
2023-05-08T01:28:09.144Z,97933.31
2023-05-08T01:30:39.075Z,97928.06
2023-05-08T01:33:14.132Z,97938.88
2023-05-08T01:35:47.624Z,97936.50
2023-05-08T01:38:14.056Z,97936.31
2023-05-08T01:40:46.962Z,97939.19
2023-05-08T01:43:22.679Z,97945.66
2023-05-08T01:45:51.393Z,97945.66
2023-05-08T01:48:20.481Z,97942.84
2023-05-08T01:50:48.466Z,97947.03
2023-05-08T01:53:34.405Z,97952.63
2023-05-08T01:56:03.684Z,97955.34
2023-05-08T01:58:30.659Z,97954.81
2023-05-08T02:00:58.947Z,97962.97
2023-05-08T02:03:25.931Z,97954.59
2023-05-08T02:05:54.304Z,97962.47
2023-05-08T02:08:21.295Z,97961.91
2023-05-08T02:10:49.805Z,97960.97
2023-05-08T02:13:19.278Z,97972.09
2023-05-08T02:15:48.167Z,97981.06
2023-05-08T02:18:15.752Z,97973.81
2023-05-08T02:20:42.237Z,97975.97
2023-05-08T02:23:09.309Z,97971.38
2023-05-08T02:25:36.436Z,97976.94
2023-05-08T02:28:03.432Z,97982.94
2023-05-08T02:30:30.638Z,97982.75
2023-05-08T02:33:00.639Z,97984.78
2023-05-08T02:35:28.401Z,97987.25
2023-05-08T02:37:55.613Z,97993.03
2023-05-08T02:40:22.686Z,97990.88
2023-05-08T02:42:49.696Z,97995.91
2023-05-08T02:45:16.693Z,97988.34
2023-05-08T02:47:52.892Z,97991.44
2023-05-08T02:50:48.950Z,97998.78
2023-05-08T02:53:18.470Z,97994.38
2023-05-08T02:55:53.791Z,98002.44
2023-05-08T02:58:32.354Z,98003.44
2023-05-08T03:01:31.512Z,98005.16
2023-05-08T03:04:21.191Z,97996.94
2023-05-08T03:06:48.067Z,98000.75
2023-05-08T03:09:26.778Z,98000.31
2023-05-08T03:11:57.979Z,98010.91
2023-05-08T03:14:28.406Z,98003.44
2023-05-08T03:16:55.861Z,98000.97
2023-05-08T03:19:26.755Z,97998.66
2023-05-08T03:21:54.860Z,98013.03
2023-05-08T03:24:22.720Z,98007.53
2023-05-08T03:26:49.290Z,98012.78
2023-05-08T03:29:16.945Z,98011.22
2023-05-08T03:31:44.599Z,98008.84
2023-05-08T03:34:12.593Z,98009.03
2023-05-08T03:36:39.442Z,98018.00
2023-05-08T03:39:06.125Z,98020.13
2023-05-08T03:41:32.652Z,98022.00
2023-05-08T03:43:59.524Z,98020.31
2023-05-08T03:46:26.244Z,98024.72
2023-05-08T03:48:53.205Z,98024.41
2023-05-08T03:51:21.771Z,98022.09
2023-05-08T03:53:49.327Z,98027.91
2023-05-08T03:56:16.073Z,98031.31
2023-05-08T03:58:42.618Z,98030.19
2023-05-08T04:01:18.608Z,98030.19
2023-05-08T04:03:57.600Z,98031.94
2023-05-08T04:06:30.753Z,98035.72
2023-05-08T04:09:04.113Z,98041.25
2023-05-08T04:11:31.666Z,98042.56
2023-05-08T04:14:01.902Z,98047.81
2023-05-08T04:16:30.901Z,98054.78
2023-05-08T04:19:02.229Z,98061.47
2023-05-08T04:21:31.445Z,98061.72
2023-05-08T04:23:58.847Z,98063.38
2023-05-08T04:26:28.244Z,98062.66
2023-05-08T04:28:57.080Z,98070.47
2023-05-08T04:31:24.529Z,98072.56
2023-05-08T04:33:51.594Z,98069.47
2023-05-08T04:36:18.091Z,98080.59
2023-05-08T04:38:45.372Z,98085.66
2023-05-08T04:41:13.043Z,98088.75
2023-05-08T04:43:40.293Z,98086.19
2023-05-08T04:46:07.803Z,98089.03
2023-05-08T04:48:34.344Z,98090.03
2023-05-08T04:51:01.191Z,98084.13
2023-05-08T04:53:28.091Z,98091.16
2023-05-08T04:55:54.619Z,98100.41
2023-05-08T04:58:21.287Z,98096.13
2023-05-08T05:00:48.867Z,98105.66
2023-05-08T05:03:15.546Z,98097.44
2023-05-08T05:05:42.805Z,98100.88
2023-05-08T05:08:09.485Z,98106.94
2023-05-08T05:10:37.823Z,98097.16
2023-05-08T05:13:04.713Z,98096.25
2023-05-08T05:15:32.106Z,98108.19
2023-05-08T05:17:59.034Z,98104.63
2023-05-08T05:20:25.940Z,98107.75
2023-05-08T05:22:53.099Z,98108.19
2023-05-08T05:25:19.652Z,98113.09
2023-05-08T05:27:46.191Z,98111.94
2023-05-08T05:30:13.149Z,98122.94
2023-05-08T05:32:39.879Z,98120.38
2023-05-08T05:35:07.303Z,98116.59
2023-05-08T05:37:33.820Z,98115.75
2023-05-08T05:40:00.591Z,98116.16
2023-05-08T05:42:27.155Z,98117.13
2023-05-08T05:44:56.708Z,98119.22
2023-05-08T05:47:23.638Z,98113.63
2023-05-08T05:49:50.394Z,98124.94
2023-05-08T05:52:16.924Z,98125.63
2023-05-08T05:54:43.488Z,98121.81
2023-05-08T05:57:10.069Z,98124.50
2023-05-08T05:59:36.761Z,98124.22
2023-05-08T06:02:03.641Z,98129.78
2023-05-08T06:04:30.508Z,98127.28
2023-05-08T06:06:57.106Z,98125.34
2023-05-08T06:09:23.692Z,98122.91
2023-05-08T06:11:51.499Z,98127.75
2023-05-08T06:14:18.192Z,98131.41
2023-05-08T06:16:45.111Z,98124.81
2023-05-08T06:19:12.007Z,98124.28
2023-05-08T06:21:39.845Z,98129.97
2023-05-08T06:24:07.790Z,98132.91
2023-05-08T06:26:34.242Z,98131.66
2023-05-08T06:29:01.376Z,98136.16
2023-05-08T06:31:28.266Z,98129.09
2023-05-08T06:33:54.988Z,98135.22
2023-05-08T06:36:21.464Z,98135.34
2023-05-08T06:38:47.936Z,98136.72
2023-05-08T06:41:15.469Z,98136.41
2023-05-08T06:43:42.120Z,98130.34
2023-05-08T06:46:08.693Z,98135.84
2023-05-08T06:48:35.201Z,98143.00
2023-05-08T06:51:02.700Z,98139.31
2023-05-08T06:53:29.175Z,98149.38
2023-05-08T06:55:57.802Z,98143.22
2023-05-08T06:58:24.462Z,98147.56
2023-05-08T07:00:51.003Z,98153.59
2023-05-08T07:03:17.448Z,98155.78
2023-05-08T07:05:43.864Z,98157.09
2023-05-08T07:08:10.447Z,98156.47
2023-05-08T07:10:36.877Z,98160.06
2023-05-08T07:13:03.386Z,98159.22
2023-05-08T07:15:31.931Z,98152.59
2023-05-08T07:17:58.679Z,98153.63
2023-05-08T07:20:25.265Z,98165.72
2023-05-08T07:22:51.787Z,98159.13
2023-05-08T07:25:18.332Z,98161.59
2023-05-08T07:27:44.837Z,98164.53
2023-05-08T07:30:11.482Z,98164.78
2023-05-08T07:32:39.224Z,98162.19
2023-05-08T07:35:10.302Z,98162.16
2023-05-08T07:37:37.617Z,98159.00
2023-05-08T07:40:04.238Z,98169.16
2023-05-08T07:42:30.698Z,98175.28
2023-05-08T07:44:57.298Z,98166.53
2023-05-08T07:47:23.918Z,98169.94
2023-05-08T07:49:50.563Z,98175.94
2023-05-08T07:52:17.065Z,98167.28
2023-05-08T07:54:43.851Z,98176.59
2023-05-08T07:57:11.180Z,98178.09
2023-05-08T07:59:37.813Z,98173.56
2023-05-08T08:02:04.335Z,98167.09
2023-05-08T08:04:30.898Z,98176.22
2023-05-08T08:06:59.349Z,98185.91
2023-05-08T08:09:25.861Z,98183.56
2023-05-08T08:11:52.349Z,98180.72
2023-05-08T08:14:19.016Z,98179.94
2023-05-08T08:16:45.537Z,98178.97
2023-05-08T08:19:12.130Z,98172.34
2023-05-08T08:21:42.431Z,98172.13
2023-05-08T08:24:08.945Z,98174.47
2023-05-08T08:26:35.450Z,98175.81
2023-05-08T08:29:02.174Z,98178.03
2023-05-08T08:31:28.673Z,98176.53
2023-05-08T08:33:55.195Z,98180.59
2023-05-08T08:36:21.661Z,98190.50
2023-05-08T08:38:48.210Z,98176.78
2023-05-08T08:41:15.676Z,98182.16
2023-05-08T08:43:45.209Z,98181.81
2023-05-08T08:46:14.717Z,98184.09
2023-05-08T08:48:45.202Z,98187.56
2023-05-08T08:51:18.921Z,98185.69
2023-05-08T08:53:49.211Z,98181.66
2023-05-08T08:56:16.468Z,98181.97
2023-05-08T08:58:50.983Z,98186.53
2023-05-08T09:01:18.297Z,98192.25
2023-05-08T09:03:46.787Z,98186.91
2023-05-08T09:06:15.040Z,98186.91
2023-05-08T09:08:42.008Z,98188.28
2023-05-08T09:11:08.496Z,98195.06
2023-05-08T09:13:35.178Z,98194.28
2023-05-08T09:16:01.845Z,98194.03
2023-05-08T09:18:28.316Z,98192.38
2023-05-08T09:20:55.043Z,98196.75
2023-05-08T09:23:21.580Z,98194.56
2023-05-08T09:25:48.696Z,98199.31
2023-05-08T09:28:18.243Z,98186.91
2023-05-08T09:30:57.958Z,98196.97
2023-05-08T09:33:25.512Z,98195.69
2023-05-08T09:35:52.180Z,98197.16
2023-05-08T09:38:37.064Z,98204.28
2023-05-08T09:41:15.265Z,98201.97
2023-05-08T09:43:45.409Z,98201.06
2023-05-08T09:46:22.420Z,98194.63
2023-05-08T09:48:49.412Z,98203.88
2023-05-08T09:51:16.172Z,98199.53
2023-05-08T09:53:42.644Z,98202.91
2023-05-08T09:56:09.718Z,98196.22
2023-05-08T09:58:40.564Z,98204.59
2023-05-08T10:01:27.341Z,98208.69
2023-05-08T10:03:53.904Z,98213.81
2023-05-08T10:06:20.384Z,98211.44
2023-05-08T10:08:48.275Z,98212.00
2023-05-08T10:11:18.217Z,98214.31
2023-05-08T10:13:45.198Z,98204.38
2023-05-08T10:16:14.416Z,98209.44
2023-05-08T10:18:42.372Z,98207.13
2023-05-08T10:21:09.056Z,98207.16
2023-05-08T10:23:37.769Z,98215.44
2023-05-08T10:26:08.880Z,98206.88
2023-05-08T10:28:49.988Z,98213.31
2023-05-08T10:31:17.892Z,98211.28
2023-05-08T10:33:45.585Z,98212.59
2023-05-08T10:36:13.377Z,98209.69
2023-05-08T10:38:41.439Z,98212.38
2023-05-08T10:41:08.209Z,98216.75
2023-05-08T10:43:36.080Z,98209.69
2023-05-08T10:46:07.621Z,98207.19
2023-05-08T10:48:39.458Z,98204.97
2023-05-08T10:51:10.123Z,98205.03
2023-05-08T10:53:46.157Z,98205.78
2023-05-08T10:56:12.693Z,98201.41
2023-05-08T10:58:40.203Z,98213.69
2023-05-08T11:01:09.609Z,98214.91
2023-05-08T11:03:41.607Z,98209.16
2023-05-08T11:06:08.327Z,98207.59
2023-05-08T11:08:43.059Z,98211.69
2023-05-08T11:11:29.474Z,98207.06
2023-05-08T11:13:59.636Z,98214.06
2023-05-08T11:16:44.928Z,98212.88
2023-05-08T11:19:22.060Z,98211.50
2023-05-08T11:22:07.672Z,98205.84
2023-05-08T11:24:37.956Z,98210.84
2023-05-08T11:27:04.675Z,98217.25
2023-05-08T11:29:31.200Z,98212.19
2023-05-08T11:31:58.073Z,98208.19
2023-05-08T11:34:49.170Z,98205.19
2023-05-08T11:37:23.923Z,98210.59
2023-05-08T11:39:50.791Z,98213.47
2023-05-08T11:42:29.430Z,98209.56
2023-05-08T11:45:02.007Z,98211.63
2023-05-08T11:47:32.283Z,98218.78
2023-05-08T11:49:59.340Z,98215.50
2023-05-08T11:52:26.382Z,98215.31
2023-05-08T11:54:53.038Z,98216.00
2023-05-08T11:57:19.814Z,98217.59
2023-05-08T11:59:49.731Z,98211.56
2023-05-08T12:02:16.337Z,98206.38
2023-05-08T12:04:46.686Z,98204.31
2023-05-08T12:07:13.650Z,98213.81
2023-05-08T12:09:40.174Z,98213.19
2023-05-08T12:12:07.216Z,98209.88
2023-05-08T12:14:34.574Z,98201.03
2023-05-08T12:17:02.298Z,98209.31
2023-05-08T12:19:28.810Z,98209.66
2023-05-08T12:21:56.979Z,98219.31
2023-05-08T12:24:26.069Z,98212.66
2023-05-08T12:26:58.547Z,98202.81
2023-05-08T12:29:27.394Z,98204.88
2023-05-08T12:31:54.193Z,98204.13
2023-05-08T12:34:21.054Z,98203.81
2023-05-08T12:36:47.807Z,98198.84
2023-05-08T12:39:18.205Z,98201.91
2023-05-08T12:41:51.898Z,98200.97
2023-05-08T12:44:19.116Z,98197.09
2023-05-08T12:46:56.303Z,98186.78
2023-05-08T12:49:26.689Z,98193.03
2023-05-08T12:52:00.229Z,98178.78
2023-05-08T12:54:33.727Z,98177.38
2023-05-08T12:57:00.630Z,98182.88
2023-05-08T12:59:33.644Z,98172.06
2023-05-08T13:02:00.305Z,98172.91
2023-05-08T13:04:27.036Z,98169.56
2023-05-08T13:06:54.724Z,98166.06
2023-05-08T13:09:21.804Z,98168.78
2023-05-08T13:11:48.251Z,98173.59
2023-05-08T13:14:14.912Z,98169.97
2023-05-08T13:16:42.094Z,98172.78
2023-05-08T13:19:08.522Z,98169.16
2023-05-08T13:21:34.981Z,98170.09
2023-05-08T13:24:01.450Z,98173.72
2023-05-08T13:26:27.905Z,98161.47
2023-05-08T13:28:56.492Z,98158.25
2023-05-08T13:31:23.348Z,98154.72
2023-05-08T13:33:49.861Z,98153.44
2023-05-08T13:36:16.344Z,98146.16
2023-05-08T13:38:42.775Z,98162.81
2023-05-08T13:41:09.268Z,98156.41
2023-05-08T13:43:36.891Z,98153.06
2023-05-08T13:46:04.826Z,98154.72
2023-05-08T13:48:33.241Z,98157.72
2023-05-08T13:50:59.753Z,98154.47
2023-05-08T13:53:26.183Z,98149.75
2023-05-08T13:55:52.728Z,98159.91
2023-05-08T13:58:19.229Z,98149.13
2023-05-08T14:00:45.723Z,98150.47
2023-05-08T14:03:12.270Z,98157.25
2023-05-08T14:05:38.843Z,98150.66
2023-05-08T14:08:05.419Z,98145.69
2023-05-08T14:10:31.894Z,98143.69
2023-05-08T14:12:58.435Z,98144.00
2023-05-08T14:15:29.178Z,98147.41
2023-05-08T14:18:02.881Z,98148.06
2023-05-08T14:20:29.363Z,98140.94
2023-05-08T14:22:59.604Z,98151.16
2023-05-08T14:25:26.671Z,98140.63
2023-05-08T14:27:53.156Z,98137.25
2023-05-08T14:30:19.640Z,98144.69
2023-05-08T14:32:46.431Z,98137.75
2023-05-08T14:35:14.119Z,98145.03
2023-05-08T14:37:41.055Z,98144.34
2023-05-08T14:40:07.830Z,98144.19
2023-05-08T14:42:34.550Z,98138.59
2023-05-08T14:45:01.185Z,98146.38
2023-05-08T14:47:27.820Z,98146.19
2023-05-08T14:49:54.332Z,98139.19
2023-05-08T14:52:20.916Z,98139.47
2023-05-08T14:54:53.068Z,98135.19
2023-05-08T14:57:20.584Z,98135.88
2023-05-08T14:59:54.884Z,98135.47
2023-05-08T15:02:22.264Z,98135.16
2023-05-08T15:04:49.052Z,98119.84
2023-05-08T15:07:15.476Z,98118.16
2023-05-08T15:09:42.032Z,98117.47
2023-05-08T15:12:08.594Z,98126.00
2023-05-08T15:14:35.363Z,98119.19
2023-05-08T15:17:01.890Z,98130.09
2023-05-08T15:19:28.336Z,98129.41
2023-05-08T15:21:54.762Z,98121.78
2023-05-08T15:24:21.210Z,98126.69
2023-05-08T15:26:47.695Z,98126.00
2023-05-08T15:29:14.225Z,98127.38
2023-05-08T15:31:40.771Z,98131.09
2023-05-08T15:34:07.292Z,98132.63
2023-05-08T15:36:35.198Z,98131.78
2023-05-08T15:39:01.716Z,98128.19
2023-05-08T15:41:28.176Z,98127.38
2023-05-08T15:43:54.659Z,98120.94
2023-05-08T15:46:21.219Z,98125.00
2023-05-08T15:48:48.187Z,98119.25
2023-05-08T15:51:14.877Z,98115.34
2023-05-08T15:53:41.434Z,98121.66
2023-05-08T15:56:07.966Z,98120.78
2023-05-08T15:58:36.625Z,98108.06
2023-05-08T16:01:04.784Z,98116.91
2023-05-08T16:03:31.621Z,98115.53
2023-05-08T16:05:58.223Z,98116.84
2023-05-08T16:08:24.685Z,98107.72
2023-05-08T16:10:54.095Z,98109.41
2023-05-08T16:13:20.713Z,98104.31
2023-05-08T16:15:47.364Z,98112.47
2023-05-08T16:18:14.031Z,98108.75
2023-05-08T16:20:41.667Z,98111.09
2023-05-08T16:23:08.200Z,98110.59
2023-05-08T16:25:34.812Z,98109.09
2023-05-08T16:28:01.315Z,98111.78
2023-05-08T16:30:27.818Z,98111.81
2023-05-08T16:32:54.345Z,98108.06
2023-05-08T16:35:20.881Z,98111.47
2023-05-08T16:37:47.472Z,98103.31
2023-05-08T16:40:14.024Z,98114.53
2023-05-08T16:42:40.546Z,98113.81
2023-05-08T16:45:08.148Z,98110.59
2023-05-08T16:47:35.046Z,98118.22
2023-05-08T16:50:01.555Z,98111.78
2023-05-08T16:52:28.027Z,98115.84
2023-05-08T16:54:54.799Z,98115.13
2023-05-08T16:57:21.346Z,98117.88
2023-05-08T16:59:47.909Z,98115.47
2023-05-08T17:02:18.742Z,98117.47
2023-05-08T17:04:46.922Z,98127.50
2023-05-08T17:07:17.287Z,98125.25
2023-05-08T17:09:44.326Z,98124.41
2023-05-08T17:12:10.914Z,98125.25
2023-05-08T17:14:39.423Z,98129.34
2023-05-08T17:17:06.397Z,98129.91
2023-05-08T17:19:32.963Z,98130.59
2023-05-08T17:21:59.924Z,98136.53
2023-05-08T17:24:26.774Z,98138.88
2023-05-08T17:26:53.283Z,98135.16
2023-05-08T17:29:19.835Z,98133.47
2023-05-08T17:31:46.363Z,98138.03
2023-05-08T17:34:13.031Z,98142.66
2023-05-08T17:36:39.556Z,98142.03
2023-05-08T17:39:06.104Z,98147.47
2023-05-08T17:41:32.582Z,98152.78
2023-05-08T17:43:59.078Z,98154.47
2023-05-08T17:46:25.557Z,98160.56
2023-05-08T17:48:52.071Z,98161.38
2023-05-08T17:51:18.653Z,98165.66
2023-05-08T17:53:45.127Z,98166.28
2023-05-08T17:56:11.738Z,98165.50
2023-05-08T17:58:38.182Z,98166.91
2023-05-08T18:01:06.159Z,98166.50
2023-05-08T18:03:32.711Z,98161.84
2023-05-08T18:05:59.161Z,98174.50
2023-05-08T18:08:25.631Z,98170.97
2023-05-08T18:10:52.066Z,98175.66
2023-05-08T18:13:18.717Z,98176.72
2023-05-08T18:15:45.250Z,98180.50
2023-05-08T18:18:11.777Z,98184.00
2023-05-08T18:20:38.422Z,98197.13
2023-05-08T18:23:04.891Z,98200.41
2023-05-08T18:25:31.428Z,98194.41
2023-05-08T18:27:58.875Z,98194.47
2023-05-08T18:30:25.416Z,98199.69
2023-05-08T18:32:53.267Z,98195.41
2023-05-08T18:35:21.508Z,98200.84
2023-05-08T18:37:48.065Z,98206.25
2023-05-08T18:40:14.817Z,98206.88
2023-05-08T18:42:41.566Z,98214.16
2023-05-08T18:45:08.401Z,98215.56
2023-05-08T18:47:34.911Z,98213.78
2023-05-08T18:50:01.406Z,98212.06
2023-05-08T18:52:27.909Z,98217.09
2023-05-08T18:54:54.379Z,98217.03
2023-05-08T18:57:20.939Z,98216.19
2023-05-08T18:59:47.412Z,98222.59
2023-05-08T19:02:14.448Z,98222.34
2023-05-08T19:04:40.917Z,98221.13
2023-05-08T19:07:07.335Z,98229.09
2023-05-08T19:09:34.042Z,98229.72
2023-05-08T19:12:00.688Z,98235.97
2023-05-08T19:14:27.285Z,98229.81
2023-05-08T19:16:55.022Z,98231.25
2023-05-08T19:19:23.493Z,98239.00
2023-05-08T19:21:50.077Z,98239.00
2023-05-08T19:24:20.386Z,98237.56
2023-05-08T19:26:47.171Z,98243.63
2023-05-08T19:29:13.615Z,98243.63
2023-05-08T19:31:40.116Z,98252.41
2023-05-08T19:34:06.761Z,98249.03
2023-05-08T19:36:34.837Z,98253.53
2023-05-08T19:39:02.578Z,98247.75
2023-05-08T19:41:29.148Z,98245.56
2023-05-08T19:43:55.792Z,98243.69
2023-05-08T19:46:22.325Z,98243.69
2023-05-08T19:48:49.049Z,98246.34
2023-05-08T19:51:16.326Z,98245.78
2023-05-08T19:53:42.917Z,98247.56
2023-05-08T19:56:09.458Z,98249.09
2023-05-08T19:58:35.919Z,98252.00
2023-05-08T20:01:02.367Z,98249.50
2023-05-08T20:03:29.029Z,98261.09
2023-05-08T20:05:55.586Z,98254.75
2023-05-08T20:08:22.066Z,98255.16
2023-05-08T20:10:49.226Z,98250.44
2023-05-08T20:13:16.687Z,98258.84
2023-05-08T20:15:43.506Z,98256.16
2023-05-08T20:18:10.051Z,98259.69
2023-05-08T20:20:36.524Z,98261.81
2023-05-08T20:23:03.148Z,98251.81
2023-05-08T20:25:29.673Z,98256.84
2023-05-08T20:27:56.200Z,98257.56
2023-05-08T20:30:23.775Z,98259.81
2023-05-08T20:32:50.586Z,98257.25
2023-05-08T20:35:17.136Z,98256.72
2023-05-08T20:37:44.333Z,98259.69
2023-05-08T20:40:10.996Z,98259.50
2023-05-08T20:42:37.959Z,98256.59
2023-05-08T20:45:04.666Z,98255.00
2023-05-08T20:47:31.231Z,98253.59
2023-05-08T20:49:57.719Z,98251.31
2023-05-08T20:52:24.137Z,98253.78
2023-05-08T20:54:50.750Z,98242.22
2023-05-08T20:57:18.472Z,98246.91
2023-05-08T20:59:47.218Z,98255.00
2023-05-08T21:02:13.861Z,98244.00
2023-05-08T21:04:40.516Z,98250.72
2023-05-08T21:07:07.218Z,98248.31
2023-05-08T21:09:33.845Z,98238.91
2023-05-08T21:12:00.629Z,98245.59
2023-05-08T21:14:27.092Z,98241.75
2023-05-08T21:16:56.861Z,98240.69
2023-05-08T21:19:23.775Z,98237.69
2023-05-08T21:21:50.299Z,98228.88
2023-05-08T21:24:17.001Z,98225.44
2023-05-08T21:26:43.501Z,98234.59
2023-05-08T21:29:10.895Z,98241.13
2023-05-08T21:31:37.662Z,98232.91
2023-05-08T21:34:04.383Z,98234.50
2023-05-08T21:36:32.168Z,98226.69
2023-05-08T21:38:58.714Z,98222.47
2023-05-08T21:41:25.182Z,98233.19
2023-05-08T21:43:51.645Z,98229.63
2023-05-08T21:46:18.177Z,98228.00
2023-05-08T21:48:44.715Z,98219.50
2023-05-08T21:51:11.399Z,98227.97
2023-05-08T21:53:37.892Z,98220.00
2023-05-08T21:56:04.487Z,98219.47
2023-05-08T21:58:30.986Z,98222.59
2023-05-08T22:00:58.714Z,98219.22
2023-05-08T22:03:25.627Z,98215.72
2023-05-08T22:05:52.608Z,98220.25
2023-05-08T22:08:19.510Z,98213.72
2023-05-08T22:10:46.472Z,98218.59
2023-05-08T22:13:13.135Z,98214.19
2023-05-08T22:15:39.623Z,98211.06
2023-05-08T22:18:06.110Z,98210.94
2023-05-08T22:20:33.164Z,98209.88
2023-05-08T22:22:59.716Z,98207.00
2023-05-08T22:25:26.761Z,98207.38
2023-05-08T22:27:53.379Z,98204.50
2023-05-08T22:30:19.910Z,98208.50
2023-05-08T22:32:52.110Z,98207.91
2023-05-08T22:35:19.490Z,98202.78
2023-05-08T22:37:46.098Z,98197.97
2023-05-08T22:40:12.803Z,98203.50
2023-05-08T22:42:39.394Z,98209.69
2023-05-08T22:45:06.161Z,98202.84
2023-05-08T22:47:33.467Z,98203.16
2023-05-08T22:49:59.970Z,98197.19
2023-05-08T22:52:27.126Z,98197.06
2023-05-08T22:54:53.724Z,98193.53
2023-05-08T22:57:21.227Z,98193.94
2023-05-08T22:59:47.757Z,98195.22
2023-05-08T23:02:14.205Z,98194.22
2023-05-08T23:04:40.683Z,98194.94
2023-05-08T23:07:07.232Z,98189.53
2023-05-08T23:09:33.655Z,98194.69
2023-05-08T23:12:00.119Z,98198.06
2023-05-08T23:14:26.591Z,98186.84
2023-05-08T23:16:53.083Z,98195.56
2023-05-08T23:19:19.546Z,98192.84
2023-05-08T23:21:46.090Z,98192.41
2023-05-08T23:24:12.602Z,98196.09
2023-05-08T23:26:41.361Z,98184.72
2023-05-08T23:29:08.652Z,98190.69
2023-05-08T23:31:35.167Z,98189.84
2023-05-08T23:34:01.591Z,98185.56
2023-05-08T23:36:28.154Z,98184.13
2023-05-08T23:38:54.594Z,98181.91
2023-05-08T23:41:21.121Z,98175.34
2023-05-08T23:43:47.595Z,98174.19
2023-05-08T23:46:14.278Z,98179.91
2023-05-08T23:48:40.766Z,98179.91
2023-05-08T23:51:07.220Z,98177.38
2023-05-08T23:53:33.745Z,98174.50
2023-05-08T23:56:00.328Z,98174.09
2023-05-08T23:58:26.764Z,98170.97
